METAR Reports for West Virginia

 

KMRB - Martinsburg, West Virginia, USA
Distance from station: NW 50mi, 81km
Updated: Thu, 21-Sep-2017 6:53pm EDT
Clear
Clear
 Wind from varies
Wind: varies 3 mph , 6 km/h
Temperature: 79°F , 26°C
Dew Point: 61°F , 16°C
Humidity: 54%
Barometer: 30.04 inHg , 1017.3 hPa
Clouds: Clear
Visibility: 10 miles , 16 km
2017/09/21 22:53 KMRB 212253Z VRB03KT 10SM CLR 26/16 A3004 RMK AO2 SLP167 T02610156
KW99 - Petersburg, West Virginia, USA
Distance from station: W 94mi, 151km
Updated: Thu, 21-Sep-2017 6:50pm EDT
Clear
Clear
 Wind from W
Wind: W 3 mph , 6 km/h
Temperature: 81°F , 27°C
Heat Index: 83°F , 28°C
Dew Point: 64°F , 18°C
Humidity: 58%
Barometer: 30.06 inHg , 1017.9 hPa
Clouds: Clear
Visibility: 10 miles , 16 km
2017/09/21 22:50 KW99 212250Z AUTO 27003KT 10SM CLR 27/18 A3006 RMK AO2 T02670180
KEKN - Elkins, West Virginia, USA
Distance from station: W 131mi, 211km
Updated: Thu, 21-Sep-2017 6:51pm EDT
Clear
Clear
 Wind from calm
Wind: Calm
Temperature: 72°F , 22°C
Dew Point: 61°F , 16°C
Humidity: 69%
Barometer: 30.13 inHg , 1020.3 hPa
Clouds: Clear
Visibility: 10 miles , 16 km
2017/09/21 22:51 KEKN 212251Z AUTO 00000KT 10SM CLR 22/16 A3013 RMK AO2 SLP195 T02220161 TSNO
 
KMGW - Morgantown, West Virginia, USA
Distance from station: WNW 145mi, 234km
Updated: Thu, 21-Sep-2017 6:53pm EDT
Clear
Clear
 Wind from calm
Wind: Calm
Temperature: 79°F , 26°C
Dew Point: 61°F , 16°C
Humidity: 54%
Barometer: 30.09 inHg , 1019 hPa
Clouds: Clear
Visibility: 10 miles , 16 km
2017/09/21 22:53 KMGW 212253Z 00000KT 10SM CLR 26/16 A3009 RMK AO2 SLP181 T02560161
KCKB - Clarksburg, West Virginia, USA
Distance from station: WNW 154mi, 247km
Updated: Thu, 21-Sep-2017 6:53pm EDT
Clear
Clear
 Wind from NE
Wind: NE 3 mph , 6 km/h
Temperature: 79°F , 26°C
Dew Point: 63°F , 17°C
Humidity: 58%
Barometer: 30.08 inHg , 1018.6 hPa
Clouds: Clear
Visibility: 10 miles , 16 km
2017/09/21 22:53 KCKB 212253Z 05003KT 10SM CLR 26/17 A3008 RMK AO2 SLP172 T02610167
KW22 - Buckhannon, West Virginia, USA
Distance from station: W 154mi, 247km
Updated: Thu, 21-Sep-2017 6:55pm EDT
Clear
Clear
 Wind from calm
Wind: Calm
Temperature: 75°F , 24°C
Dew Point: 68°F , 20°C
Humidity: 78%
Barometer: 30.10 inHg , 1019.3 hPa
Clouds: Clear
Visibility: 10 miles , 16 km
2017/09/21 22:55 KW22 212255Z AUTO 00000KT 10SM CLR 24/20 A3010 RMK AO2
 
KHLG - Wheeling, West Virginia, USA
Distance from station: WNW 196mi, 315km
Updated: Thu, 21-Sep-2017 6:53pm EDT
Clear
Clear
 Wind from calm
Wind: Calm
Temperature: 81°F , 27°C
Heat Index: 82°F , 28°C
Dew Point: 63°F , 17°C
Humidity: 54%
Barometer: 30.07 inHg , 1018.3 hPa
Clouds: Clear
Visibility: 10 miles , 16 km
2017/09/21 22:53 KHLG 212253Z 00000KT 10SM CLR 27/17 A3007 RMK AO2 SLP178 T02670172
KPKB - Parkersburg, West Virginia, USA
Distance from station: W 217mi, 350km
Updated: Thu, 21-Sep-2017 6:53pm EDT
Clear
Clear
 Wind from calm
Wind: Calm
Temperature: 82°F , 28°C
Heat Index: 84°F , 29°C
Dew Point: 66°F , 19°C
Humidity: 58%
Barometer: 30.08 inHg , 1018.6 hPa
Clouds: Clear
Visibility: 10 miles , 16 km
2017/09/21 22:53 KPKB 212253Z 00000KT 10SM CLR 28/19 A3008 RMK AO2 SLP180 T02780189
KCRW - Charleston, West Virginia, USA
Distance from station: WSW 227mi, 365km
Updated: Thu, 21-Sep-2017 6:54pm EDT
Partly cloudy
Partly cloudy
 Wind from calm
Wind: Calm
Temperature: 81°F , 27°C
Heat Index: 83°F , 28°C
Dew Point: 66°F , 19°C
Humidity: 62%
Barometer: 30.05 inHg , 1017.6 hPa
Clouds: Partly cloudy
Visibility: 10 miles , 16 km
Cloud details: Partly cloudy 5000 ft
2017/09/21 22:54 KCRW 212254Z 00000KT 10SM SCT050 27/19 A3005 RMK AO2 SLP168 T02720189
 
KLWB - Lewisburg, West Virginia, USA
Distance from station: WSW 175mi, 281km
Updated: Thu, 21-Sep-2017 6:55pm EDT
Partly cloudy
Partly cloudy
 Wind from NNW
Wind: NNW 3 mph , 6 km/h
Temperature: 77°F , 25°C
Dew Point: 63°F , 17°C
Humidity: 61%
Barometer: 30.12 inHg , 1020 hPa
Clouds: Partly cloudy
Visibility: 10 miles , 16 km
Cloud details: Partly cloudy 7500 ft
2017/09/21 22:55 KLWB 212255Z AUTO 34003KT 10SM SCT075 25/17 A3012 RMK AO2 T02450165
KBKW - Beckley, West Virginia, USA
Distance from station: WSW 213mi, 342km
Updated: Thu, 21-Sep-2017 6:51pm EDT
Clear
Clear
 Wind from NNE
Wind: NNE 5 mph , 7 km/h
Temperature: 75°F , 24°C
Dew Point: 63°F , 17°C
Humidity: 65%
Barometer: 30.14 inHg , 1020.7 hPa
Clouds: Clear
Visibility: 10 miles , 16 km
2017/09/21 22:51 KBKW 212251Z AUTO 02004KT 10SM CLR 24/17 A3014 RMK AO2 SLP178 T02390167 TSNO
KBLF - Bluefield, West Virginia, USA
Distance from station: SW 231mi, 372km
Updated: Thu, 21-Sep-2017 6:52pm EDT
Mostly cloudy
Mostly cloudy
 Wind from NNE
Wind: NNE 7 mph , 11 km/h
Temperature: 73°F , 23°C
Dew Point: 61°F , 16°C
Humidity: 65%
Barometer: 30.15 inHg , 1021 hPa
Clouds: Mostly cloudy
Visibility: 10 miles , 16 km
Cloud details: Few Clouds 3700 ft
Partly cloudy 6000 ft
Mostly cloudy 10000 ft
2017/09/21 22:52 KBLF 212252Z AUTO 02006KT 10SM FEW037 SCT060 BKN100 23/16 A3015 RMK AO2 RAB2159E12 TSB01E16 SLP179 P0000 T02330156
 
KI16 - Pineville, West Virginia, USA
Distance from station: WSW 240mi, 387km
Updated: Thu, 21-Sep-2017 6:55pm EDT
Clear
Clear
 
Temperature: 72°F , 22°C
Dew Point: 66°F , 19°C
Humidity: 83%
Barometer: 30.14 inHg , 1020.7 hPa
Clouds: Clear
Visibility: 10 miles , 16 km
2017/09/21 22:55 KI16 212255Z AUTO 10SM CLR 22/19 A3014 RMK AO2 T02230188
KHTS - Huntington, West Virginia, USA
Distance from station: W 279mi, 449km
Updated: Thu, 21-Sep-2017 6:51pm EDT
Clear
Clear
 Wind from calm
Wind: Calm
Temperature: 82°F , 28°C
Heat Index: 84°F , 29°C
Dew Point: 64°F , 18°C
Humidity: 55%
Barometer: 30.04 inHg , 1017.3 hPa
Clouds: Clear
Visibility: 10 miles , 16 km
2017/09/21 22:51 KHTS 212251Z 00000KT 10SM CLR 28/18 A3004 RMK AO2 SLP166 T02830183